createdAt,value
2018-05-06T00:00:35.536Z,2.80
2018-05-06T00:03:03.673Z,3.27
2018-05-06T00:05:31.693Z,3.33
2018-05-06T00:07:59.753Z,3.60
2018-05-06T00:10:28.530Z,4.10
2018-05-06T00:12:57.406Z,3.27
2018-05-06T00:15:25.464Z,3.60
2018-05-06T00:17:53.529Z,5.43
2018-05-06T00:20:21.553Z,4.67
2018-05-06T00:22:49.616Z,4.00
2018-05-06T00:25:17.691Z,3.83
2018-05-06T00:27:45.730Z,4.30
2018-05-06T00:30:13.777Z,5.00
2018-05-06T00:32:42.631Z,5.60
2018-05-06T00:35:10.693Z,5.73
2018-05-06T00:37:39.530Z,6.20
2018-05-06T00:40:07.574Z,6.63
2018-05-06T00:42:35.630Z,7.30
2018-05-06T00:45:03.678Z,6.13
2018-05-06T00:47:31.763Z,10.20
2018-05-06T00:49:59.827Z,6.43
2018-05-06T00:52:27.877Z,10.20
2018-05-06T00:54:55.937Z,5.53
2018-05-06T00:57:23.986Z,4.60
2018-05-06T00:59:52.802Z,9.00
2018-05-06T01:02:20.879Z,4.67
2018-05-06T01:04:48.914Z,4.70
2018-05-06T01:07:17.769Z,3.93
2018-05-06T01:09:45.778Z,3.03
2018-05-06T01:12:14.616Z,3.33
2018-05-06T01:14:42.681Z,3.53
2018-05-06T01:17:10.764Z,4.37
2018-05-06T01:19:38.788Z,3.47
2018-05-06T01:22:07.616Z,3.20
2018-05-06T01:24:35.669Z,3.83
2018-05-06T01:27:03.725Z,3.17
2018-05-06T01:29:31.789Z,3.80
2018-05-06T01:32:00.586Z,3.37
2018-05-06T01:34:28.639Z,3.80
2018-05-06T01:36:57.461Z,3.97
2018-05-06T01:39:25.557Z,3.83
2018-05-06T01:41:53.587Z,3.60
2018-05-06T01:44:21.622Z,3.60
2018-05-06T01:46:50.084Z,4.00
2018-05-06T01:49:18.582Z,3.50
2018-05-06T01:51:46.617Z,3.97
2018-05-06T01:54:14.678Z,4.00
2018-05-06T01:56:42.760Z,3.73
2018-05-06T01:59:12.332Z,3.60
2018-05-06T02:01:41.191Z,3.70
2018-05-06T02:04:10.399Z,3.60
2018-05-06T02:06:39.797Z,3.00
2018-05-06T02:09:08.576Z,3.87
2018-05-06T02:11:36.600Z,3.77
2018-05-06T02:14:04.763Z,3.47
2018-05-06T02:16:32.809Z,4.17
2018-05-06T02:19:02.031Z,3.90
2018-05-06T02:21:30.836Z,3.73
2018-05-06T02:23:58.887Z,3.67
2018-05-06T02:26:27.700Z,4.03
2018-05-06T02:28:55.739Z,4.13
2018-05-06T02:31:24.590Z,4.10
2018-05-06T02:33:52.738Z,3.90
2018-05-06T02:36:20.777Z,3.93
2018-05-06T02:38:49.584Z,4.93
2018-05-06T02:41:17.662Z,3.63
2018-05-06T02:43:45.711Z,4.20
2018-05-06T02:46:14.520Z,3.97
2018-05-06T02:48:42.580Z,4.33
2018-05-06T02:51:10.626Z,4.20
2018-05-06T02:53:39.479Z,4.20
2018-05-06T02:56:07.609Z,4.30
2018-05-06T02:58:35.629Z,3.80
2018-05-06T03:01:03.656Z,4.93
2018-05-06T03:03:31.712Z,3.70
2018-05-06T03:06:00.547Z,4.17
2018-05-06T03:08:28.590Z,3.80
2018-05-06T03:10:56.651Z,4.30
2018-05-06T03:13:25.431Z,4.30
2018-05-06T03:15:54.237Z,4.40
2018-05-06T03:18:22.299Z,4.20
2018-05-06T03:20:50.352Z,4.40
2018-05-06T03:23:19.762Z,4.53
2018-05-06T03:25:48.601Z,4.77
2018-05-06T03:28:16.665Z,4.60
2018-05-06T03:30:44.694Z,4.10
2018-05-06T03:33:13.522Z,4.63
2018-05-06T03:35:41.589Z,4.30
2018-05-06T03:38:09.641Z,4.17
2018-05-06T03:40:37.693Z,4.77
2018-05-06T03:43:06.585Z,4.10
2018-05-06T03:45:35.432Z,5.03
2018-05-06T03:48:03.485Z,4.37
2018-05-06T03:50:31.593Z,4.77
2018-05-06T03:52:59.620Z,4.07
2018-05-06T03:55:27.656Z,4.50
2018-05-06T03:58:08.310Z,4.17
2018-05-06T04:00:45.988Z,4.20
2018-05-06T04:03:14.744Z,4.13
2018-05-06T04:05:42.884Z,4.40
2018-05-06T04:08:10.858Z,4.80
2018-05-06T04:10:39.671Z,4.40
2018-05-06T04:13:08.106Z,4.50
2018-05-06T04:15:36.153Z,4.53
2018-05-06T04:18:04.238Z,4.57
2018-05-06T04:20:32.283Z,4.37
2018-05-06T04:23:00.349Z,4.60
2018-05-06T04:25:28.419Z,4.30
2018-05-06T04:27:56.565Z,4.33
2018-05-06T04:30:24.617Z,5.37
2018-05-06T04:32:52.647Z,5.03
2018-05-06T04:35:20.708Z,5.07
2018-05-06T04:37:49.199Z,5.10
2018-05-06T04:40:17.242Z,5.07
2018-05-06T04:42:45.312Z,4.77
2018-05-06T04:45:13.381Z,4.90
2018-05-06T04:47:41.457Z,5.00
2018-05-06T04:50:09.526Z,6.07
2018-05-06T04:52:37.579Z,5.10
2018-05-06T04:55:06.395Z,4.60
2018-05-06T04:57:34.441Z,5.60
2018-05-06T05:00:02.477Z,4.90
2018-05-06T05:02:30.537Z,5.03
2018-05-06T05:04:58.581Z,5.37
2018-05-06T05:07:27.405Z,5.47
2018-05-06T05:09:56.097Z,5.30
2018-05-06T05:12:24.151Z,5.30
2018-05-06T05:14:52.195Z,5.20
2018-05-06T05:17:20.267Z,5.30
2018-05-06T05:19:48.326Z,6.90
2018-05-06T05:22:16.375Z,6.37
2018-05-06T05:24:45.222Z,6.50
2018-05-06T05:27:13.266Z,6.27
2018-05-06T05:29:41.329Z,6.67
2018-05-06T05:32:09.390Z,6.17
2018-05-06T05:34:37.462Z,6.23
2018-05-06T05:37:05.535Z,6.60
2018-05-06T05:39:33.631Z,6.40
2018-05-06T05:42:01.763Z,6.47
2018-05-06T05:44:29.788Z,6.10
2018-05-06T05:46:57.829Z,5.67
2018-05-06T05:49:25.881Z,6.40
2018-05-06T05:51:53.932Z,6.53
2018-05-06T05:54:22.771Z,5.73
2018-05-06T05:56:50.814Z,5.90
2018-05-06T05:59:18.886Z,4.77
2018-05-06T06:01:46.930Z,4.90
2018-05-06T06:04:15.362Z,6.27
2018-05-06T06:06:43.403Z,5.83
2018-05-06T06:09:11.473Z,6.50
2018-05-06T06:11:40.317Z,6.03
2018-05-06T06:14:08.377Z,5.87
2018-05-06T06:16:36.452Z,5.97
2018-05-06T06:19:04.498Z,6.10
2018-05-06T06:21:32.540Z,5.60
2018-05-06T06:24:01.346Z,5.70
2018-05-06T06:26:29.438Z,5.47
2018-05-06T06:28:57.487Z,6.00
2018-05-06T06:31:25.555Z,5.57
2018-05-06T06:33:53.605Z,5.50
2018-05-06T06:36:22.417Z,5.63
2018-05-06T06:38:50.483Z,6.00
2018-05-06T06:41:18.554Z,5.77
2018-05-06T06:43:47.371Z,5.60
2018-05-06T06:46:15.415Z,4.90
2018-05-06T06:48:43.490Z,6.17
2018-05-06T06:51:11.559Z,5.47
2018-05-06T06:53:40.354Z,5.20
2018-05-06T06:56:08.410Z,5.67
2018-05-06T06:58:36.857Z,5.83
2018-05-06T07:01:04.930Z,5.40
2018-05-06T07:03:33.011Z,5.23
2018-05-06T07:06:01.045Z,5.27
2018-05-06T07:08:29.105Z,5.43
2018-05-06T07:10:57.214Z,5.30
2018-05-06T07:13:25.298Z,5.77
2018-05-06T07:15:53.365Z,5.73
2018-05-06T07:18:21.494Z,5.17
2018-05-06T07:20:50.263Z,5.23
2018-05-06T07:23:19.057Z,5.50
2018-05-06T07:25:47.134Z,4.70
2018-05-06T07:28:15.168Z,5.83
2018-05-06T07:30:43.255Z,4.53
2018-05-06T07:33:12.100Z,4.60
2018-05-06T07:35:40.181Z,4.53
2018-05-06T07:38:08.217Z,4.60
2018-05-06T07:40:36.300Z,4.37
2018-05-06T07:43:04.321Z,4.27
2018-05-06T07:45:33.148Z,3.90
2018-05-06T07:48:01.197Z,4.60
2018-05-06T07:50:30.034Z,4.20
2018-05-06T07:52:58.841Z,5.47
2018-05-06T07:55:26.935Z,4.57
2018-05-06T07:57:55.717Z,3.93
2018-05-06T08:00:24.552Z,4.73
2018-05-06T08:02:52.622Z,4.87
2018-05-06T08:05:20.665Z,4.40
2018-05-06T08:07:49.506Z,4.07
2018-05-06T08:10:17.566Z,4.40
2018-05-06T08:12:45.652Z,3.97
2018-05-06T08:15:13.718Z,3.80
2018-05-06T08:17:41.790Z,4.03
2018-05-06T08:20:09.842Z,3.93
2018-05-06T08:22:37.905Z,3.70
2018-05-06T08:25:05.976Z,3.80
2018-05-06T08:27:34.049Z,3.70
2018-05-06T08:30:02.133Z,3.97
2018-05-06T08:32:30.190Z,3.47
2018-05-06T08:34:58.279Z,3.70
2018-05-06T08:37:26.413Z,3.90
2018-05-06T08:39:54.418Z,3.93
2018-05-06T08:42:22.491Z,3.37
2018-05-06T08:44:50.564Z,3.47
2018-05-06T08:47:18.618Z,3.70
2018-05-06T08:49:46.681Z,3.20
2018-05-06T08:52:15.633Z,3.13
2018-05-06T08:54:43.725Z,3.37
2018-05-06T08:57:11.763Z,3.50
2018-05-06T08:59:39.942Z,3.00
2018-05-06T09:02:07.974Z,3.10
2018-05-06T09:04:36.051Z,3.00
2018-05-06T09:07:04.086Z,2.90
2018-05-06T09:09:32.915Z,2.83
2018-05-06T09:12:01.035Z,3.00
2018-05-06T09:14:29.062Z,2.97
2018-05-06T09:16:57.107Z,2.90
2018-05-06T09:19:25.195Z,2.77
2018-05-06T09:21:53.237Z,3.10
2018-05-06T09:24:21.333Z,2.90
2018-05-06T09:26:49.378Z,3.07
2018-05-06T09:29:17.438Z,2.93
2018-05-06T09:31:46.466Z,3.57
2018-05-06T09:34:14.681Z,3.20
2018-05-06T09:36:42.724Z,2.70
2018-05-06T09:39:10.791Z,3.03
2018-05-06T09:41:38.832Z,2.90
2018-05-06T09:44:06.951Z,3.43
2018-05-06T09:46:35.830Z,3.50
2018-05-06T09:49:03.883Z,4.03
2018-05-06T09:51:31.957Z,3.00
2018-05-06T09:54:00.009Z,2.90
2018-05-06T09:56:28.028Z,3.00
2018-05-06T09:58:56.099Z,2.93
2018-05-06T10:01:24.164Z,3.10
2018-05-06T10:03:52.231Z,3.17
2018-05-06T10:06:22.911Z,3.43
2018-05-06T10:08:50.937Z,3.17
2018-05-06T10:11:19.019Z,3.60
2018-05-06T10:13:47.137Z,3.80
2018-05-06T10:16:15.147Z,3.03
2018-05-06T10:18:43.197Z,3.40
2018-05-06T10:21:11.246Z,3.20
2018-05-06T10:23:39.317Z,2.97
2018-05-06T10:26:08.185Z,3.50
2018-05-06T10:28:36.206Z,3.77
2018-05-06T10:31:04.251Z,3.70
2018-05-06T10:33:32.330Z,3.70
2018-05-06T10:36:00.422Z,3.57
2018-05-06T10:38:28.488Z,3.23
2018-05-06T10:40:56.555Z,3.23
2018-05-06T10:43:24.619Z,3.23
2018-05-06T10:45:52.704Z,3.30
2018-05-06T10:48:20.742Z,3.67
2018-05-06T10:50:48.793Z,2.90
2018-05-06T10:53:16.826Z,3.43
2018-05-06T10:55:44.893Z,2.70
2018-05-06T10:58:12.957Z,3.13
2018-05-06T11:00:41.049Z,2.70
2018-05-06T11:03:09.095Z,3.17
2018-05-06T11:05:37.121Z,2.43
2018-05-06T11:08:05.193Z,2.50
2018-05-06T11:10:33.702Z,3.20
2018-05-06T11:13:02.113Z,3.13
2018-05-06T11:15:30.270Z,3.43
2018-05-06T11:17:58.336Z,3.10
2018-05-06T11:20:26.339Z,2.77
2018-05-06T11:22:54.395Z,3.30
2018-05-06T11:25:22.449Z,2.97
2018-05-06T11:27:50.517Z,3.20
2018-05-06T11:30:18.595Z,3.40
2018-05-06T11:32:46.643Z,2.73
2018-05-06T11:35:15.499Z,3.07
2018-05-06T11:37:43.525Z,2.80
2018-05-06T11:40:11.585Z,2.83
2018-05-06T11:42:39.653Z,3.00
2018-05-06T11:45:07.921Z,3.20
2018-05-06T11:47:35.947Z,2.77
2018-05-06T11:50:04.029Z,2.80
2018-05-06T11:52:32.061Z,2.00
2018-05-06T11:55:00.135Z,2.47
2018-05-06T11:57:28.195Z,2.30
2018-05-06T11:59:56.222Z,2.50
2018-05-06T12:02:24.329Z,2.73
2018-05-06T12:04:52.342Z,2.40
2018-05-06T12:07:20.434Z,2.20
2018-05-06T12:09:48.542Z,3.23
2018-05-06T12:12:16.611Z,3.63
2018-05-06T12:14:44.648Z,4.67
2018-05-06T12:17:12.728Z,2.60
2018-05-06T12:19:40.822Z,2.43
2018-05-06T12:22:08.869Z,2.50
2018-05-06T12:24:36.905Z,2.37
2018-05-06T12:27:04.977Z,3.10
2018-05-06T12:29:33.045Z,2.77
2018-05-06T12:32:01.131Z,2.73
2018-05-06T12:34:29.185Z,2.83
2018-05-06T12:36:57.280Z,5.43
2018-05-06T12:39:25.332Z,13.60
2018-05-06T12:41:53.497Z,7.73
2018-05-06T12:44:21.543Z,3.83
2018-05-06T12:46:49.606Z,2.60
2018-05-06T12:49:18.403Z,3.43
2018-05-06T12:51:46.467Z,2.80
2018-05-06T12:54:15.303Z,2.60
2018-05-06T12:56:43.356Z,3.33
2018-05-06T12:59:11.430Z,3.30
2018-05-06T13:01:39.481Z,3.10
2018-05-06T13:04:08.099Z,3.43
2018-05-06T13:06:36.166Z,2.80
2018-05-06T13:09:04.221Z,3.23
2018-05-06T13:11:32.358Z,2.80
2018-05-06T13:14:00.368Z,3.50
2018-05-06T13:16:28.410Z,4.50
2018-05-06T13:18:57.219Z,3.13
2018-05-06T13:21:25.290Z,2.57
2018-05-06T13:23:53.348Z,3.50
2018-05-06T13:26:22.162Z,2.67
2018-05-06T13:28:50.190Z,3.00
2018-05-06T13:31:19.025Z,3.27
2018-05-06T13:33:47.081Z,3.37
2018-05-06T13:36:15.152Z,2.60
2018-05-06T13:38:43.230Z,2.40
2018-05-06T13:41:11.331Z,2.87
2018-05-06T13:43:39.843Z,2.83
2018-05-06T13:46:07.872Z,3.00
2018-05-06T13:48:37.270Z,2.77
2018-05-06T13:51:05.240Z,2.70
2018-05-06T13:53:33.304Z,4.03
2018-05-06T13:56:02.498Z,6.60
2018-05-06T13:58:30.582Z,5.67
2018-05-06T14:00:59.401Z,6.57
2018-05-06T14:03:27.457Z,2.60
2018-05-06T14:05:55.605Z,2.80
2018-05-06T14:08:23.572Z,2.53
2018-05-06T14:10:51.639Z,3.73
2018-05-06T14:13:19.714Z,3.13
2018-05-06T14:15:47.784Z,2.00
2018-05-06T14:18:15.826Z,2.53
2018-05-06T14:20:43.849Z,2.43
2018-05-06T14:23:11.901Z,2.20
2018-05-06T14:25:39.985Z,2.30
2018-05-06T14:28:08.034Z,2.27
2018-05-06T14:30:36.088Z,1.90
2018-05-06T14:33:04.166Z,2.00
2018-05-06T14:35:32.216Z,3.27
2018-05-06T14:38:00.274Z,2.90
2018-05-06T14:40:28.333Z,3.40
2018-05-06T14:42:56.393Z,4.50
2018-05-06T14:45:24.438Z,4.77
2018-05-06T14:48:04.270Z,3.10
2018-05-06T14:50:32.315Z,5.73
2018-05-06T14:53:01.169Z,2.90
2018-05-06T14:55:31.762Z,3.30
2018-05-06T14:57:59.805Z,2.33
2018-05-06T15:00:28.660Z,2.80
2018-05-06T15:02:57.550Z,2.60
2018-05-06T15:05:25.623Z,5.60
2018-05-06T15:07:53.679Z,1.70
2018-05-06T15:10:21.744Z,3.07
2018-05-06T15:12:49.820Z,2.23
2018-05-06T15:15:17.898Z,2.83
2018-05-06T15:17:45.944Z,3.57
2018-05-06T15:20:14.004Z,3.40
2018-05-06T15:22:42.079Z,2.97
2018-05-06T15:25:10.145Z,2.60
2018-05-06T15:27:38.955Z,2.03
2018-05-06T15:30:07.021Z,2.93
2018-05-06T15:32:35.087Z,3.30
2018-05-06T15:35:03.145Z,2.73
2018-05-06T15:37:31.190Z,2.30
2018-05-06T15:39:59.281Z,2.80
2018-05-06T15:42:28.081Z,2.27
2018-05-06T15:44:56.168Z,2.20
2018-05-06T15:47:24.221Z,2.60
2018-05-06T15:49:52.279Z,2.40
2018-05-06T15:52:20.362Z,2.30
2018-05-06T15:54:49.162Z,2.50
2018-05-06T15:57:17.735Z,4.13
2018-05-06T15:59:45.821Z,4.10
2018-05-06T16:05:31.519Z,3.23
2018-05-06T16:08:00.333Z,2.60
2018-05-06T16:10:28.413Z,4.90
2018-05-06T16:12:56.503Z,2.50
2018-05-06T16:15:24.553Z,2.60
2018-05-06T16:17:52.661Z,1.70
2018-05-06T16:20:20.730Z,2.60
2018-05-06T16:22:48.803Z,2.43
2018-05-06T16:25:16.833Z,2.87
2018-05-06T16:27:44.898Z,4.00
2018-05-06T16:30:12.944Z,4.70
2018-05-06T16:32:41.737Z,3.17
2018-05-06T16:35:09.868Z,2.10
2018-05-06T16:37:37.901Z,5.50
2018-05-06T16:40:05.997Z,6.03
2018-05-06T16:42:34.027Z,3.50
2018-05-06T16:45:02.103Z,3.60
2018-05-06T16:47:30.918Z,4.60
2018-05-06T16:49:58.988Z,2.97
2018-05-06T16:52:27.010Z,2.33
2018-05-06T16:54:55.863Z,2.40
2018-05-06T16:57:24.020Z,1.90
2018-05-06T16:59:52.789Z,2.33
2018-05-06T17:02:21.190Z,2.40
2018-05-06T17:04:49.298Z,2.93
2018-05-06T17:07:18.165Z,4.30
2018-05-06T17:09:46.277Z,2.50
2018-05-06T17:12:15.124Z,2.80
2018-05-06T17:14:43.194Z,2.20
2018-05-06T17:17:11.316Z,2.60
2018-05-06T17:19:40.158Z,2.20
2018-05-06T17:22:08.336Z,2.53
2018-05-06T17:24:39.513Z,3.70
2018-05-06T17:27:08.349Z,6.03
2018-05-06T17:29:36.385Z,4.10
2018-05-06T17:32:04.542Z,4.07
2018-05-06T17:34:33.353Z,3.60
2018-05-06T17:37:01.384Z,3.73
2018-05-06T17:39:29.450Z,4.23
2018-05-06T17:41:57.502Z,4.30
2018-05-06T17:44:25.597Z,6.87
2018-05-06T17:46:53.647Z,6.10
2018-05-06T17:49:21.701Z,4.10
2018-05-06T17:51:49.781Z,2.30
2018-05-06T17:54:17.921Z,3.17
2018-05-06T17:56:45.938Z,6.30
2018-05-06T17:59:14.005Z,4.37
2018-05-06T18:01:42.087Z,4.77
2018-05-06T18:04:10.079Z,5.10
2018-05-06T18:06:38.525Z,8.13
2018-05-06T18:09:06.596Z,5.23
2018-05-06T18:11:34.656Z,4.17
2018-05-06T18:14:03.454Z,7.60
2018-05-06T18:16:32.289Z,5.93
2018-05-06T18:19:01.685Z,6.37
2018-05-06T18:21:31.165Z,5.70
2018-05-06T18:23:59.254Z,7.27
2018-05-06T18:26:27.293Z,6.10
2018-05-06T18:28:55.363Z,4.73
2018-05-06T18:31:23.432Z,8.87
2018-05-06T18:33:51.470Z,8.77
2018-05-06T18:36:19.504Z,8.77
2018-05-06T18:38:47.564Z,4.00
2018-05-06T18:41:15.625Z,7.53
2018-05-06T18:43:43.682Z,8.67
2018-05-06T18:46:11.770Z,4.20
2018-05-06T18:48:39.801Z,5.23
2018-05-06T18:51:10.694Z,4.50
2018-05-06T18:53:39.669Z,4.57
2018-05-06T18:56:07.744Z,3.37
2018-05-06T18:58:35.823Z,4.73
2018-05-06T19:01:03.862Z,4.53
2018-05-06T19:03:31.929Z,3.10
2018-05-06T19:06:00.801Z,3.30
2018-05-06T19:08:28.920Z,2.80
2018-05-06T19:10:56.912Z,2.70
2018-05-06T19:13:24.945Z,3.60
2018-05-06T19:15:53.003Z,3.23
2018-05-06T19:18:21.099Z,2.80
2018-05-06T19:20:49.123Z,2.30
2018-05-06T19:23:17.971Z,2.50
2018-05-06T19:25:46.026Z,2.83
2018-05-06T19:28:14.088Z,3.63
2018-05-06T19:30:42.144Z,3.37
2018-05-06T19:33:10.234Z,3.63
2018-05-06T19:35:38.313Z,3.17
2018-05-06T19:38:06.369Z,2.57
2018-05-06T19:40:34.403Z,3.10
2018-05-06T19:43:03.509Z,3.07
2018-05-06T19:45:32.340Z,3.67
2018-05-06T19:48:00.417Z,3.47
2018-05-06T19:50:28.518Z,2.90
2018-05-06T19:52:56.565Z,3.00
2018-05-06T19:55:24.686Z,2.70
2018-05-06T19:57:52.776Z,2.70
2018-05-06T20:00:20.913Z,3.00
2018-05-06T20:02:48.995Z,3.53
2018-05-06T20:05:17.811Z,3.17
2018-05-06T20:07:45.885Z,3.70
2018-05-06T20:10:13.953Z,2.83
2018-05-06T20:12:42.020Z,3.87
2018-05-06T20:15:10.097Z,3.57
2018-05-06T20:17:38.121Z,3.43
2018-05-06T20:20:06.334Z,3.07
2018-05-06T20:22:34.407Z,3.60
2018-05-06T20:25:02.449Z,3.60
2018-05-06T20:27:31.277Z,3.87
2018-05-06T20:29:59.358Z,2.67
2018-05-06T20:32:27.426Z,3.17
2018-05-06T20:34:55.530Z,3.30
2018-05-06T20:37:23.545Z,3.07
2018-05-06T20:39:51.585Z,3.70
2018-05-06T20:42:19.681Z,3.17
2018-05-06T20:44:47.727Z,3.10
2018-05-06T20:47:15.804Z,3.10
2018-05-06T20:49:45.290Z,3.17
2018-05-06T20:52:14.224Z,3.40
2018-05-06T20:54:42.423Z,3.10
2018-05-06T20:57:10.438Z,3.20
2018-05-06T20:59:38.480Z,3.17
2018-05-06T21:02:06.554Z,3.37
2018-05-06T21:04:34.608Z,3.03
2018-05-06T21:07:02.693Z,2.90
2018-05-06T21:09:30.721Z,3.07
2018-05-06T21:11:58.793Z,2.97
2018-05-06T21:14:27.623Z,3.20
2018-05-06T21:16:55.755Z,3.57
2018-05-06T21:19:23.866Z,3.23
2018-05-06T21:21:51.878Z,3.43
2018-05-06T21:24:19.986Z,4.27
2018-05-06T21:26:48.040Z,4.10
2018-05-06T21:29:16.867Z,3.30
2018-05-06T21:31:44.901Z,3.30
2018-05-06T21:34:13.057Z,3.00
2018-05-06T21:36:41.055Z,3.87
2018-05-06T21:39:10.600Z,3.77
2018-05-06T21:41:38.608Z,3.70
2018-05-06T21:44:06.681Z,3.60
2018-05-06T21:46:34.726Z,2.73
2018-05-06T21:49:02.786Z,3.37
2018-05-06T21:51:30.854Z,3.30
2018-05-06T21:53:58.960Z,2.70
2018-05-06T21:56:27.765Z,3.20
2018-05-06T21:58:55.845Z,2.67
2018-05-06T22:01:24.645Z,3.10
2018-05-06T22:03:52.731Z,3.20
2018-05-06T22:06:20.790Z,2.87
2018-05-06T22:08:48.872Z,3.20
2018-05-06T22:11:17.914Z,2.80
2018-05-06T22:13:45.946Z,2.57
2018-05-06T22:16:13.977Z,3.40
2018-05-06T22:18:42.045Z,3.30
2018-05-06T22:21:10.866Z,3.23
2018-05-06T22:23:38.981Z,2.97
2018-05-06T22:26:07.030Z,2.80
2018-05-06T22:28:35.102Z,3.03
2018-05-06T22:31:03.166Z,3.10
2018-05-06T22:33:31.221Z,3.47
2018-05-06T22:35:59.275Z,2.63
2018-05-06T22:38:27.362Z,3.53
2018-05-06T22:40:55.424Z,3.80
2018-05-06T22:43:23.520Z,5.83
2018-05-06T22:45:52.727Z,2.77
2018-05-06T22:48:20.801Z,3.20
2018-05-06T22:50:48.845Z,2.87
2018-05-06T22:53:16.910Z,3.00
2018-05-06T22:55:45.369Z,3.10
2018-05-06T22:58:13.389Z,3.27
2018-05-06T23:00:41.460Z,3.10
2018-05-06T23:03:09.502Z,3.10
2018-05-06T23:05:37.664Z,3.60
2018-05-06T23:08:05.708Z,3.20
2018-05-06T23:10:33.758Z,3.23
2018-05-06T23:13:01.814Z,2.90
2018-05-06T23:15:29.890Z,3.20
2018-05-06T23:17:57.927Z,2.80
2018-05-06T23:20:25.998Z,5.33
2018-05-06T23:22:54.054Z,2.87
2018-05-06T23:25:22.876Z,2.87
2018-05-06T23:27:50.922Z,3.23
2018-05-06T23:30:18.981Z,3.37
2018-05-06T23:32:47.806Z,3.00
2018-05-06T23:35:15.854Z,2.90
2018-05-06T23:37:43.921Z,2.83
2018-05-06T23:40:11.977Z,3.03
2018-05-06T23:42:40.799Z,3.07
2018-05-06T23:45:08.855Z,3.20
2018-05-06T23:47:36.904Z,2.83
2018-05-06T23:50:05.737Z,3.40
2018-05-06T23:52:34.529Z,3.13
2018-05-06T23:55:02.581Z,3.43
2018-05-06T23:57:31.902Z,3.00
2018-05-06T23:59:59.950Z,3.80
